createdAt,value
2018-12-18T00:00:34.217Z,1020.00
2018-12-18T00:01:34.214Z,1020.03
2018-12-18T00:02:34.275Z,1020.05
2018-12-18T00:03:39.305Z,1020.06
2018-12-18T00:04:35.181Z,1020.06
2018-12-18T00:05:34.176Z,1020.07
2018-12-18T00:06:34.171Z,1020.08
2018-12-18T00:07:34.142Z,1020.12
2018-12-18T00:08:34.120Z,1020.06
2018-12-18T00:09:34.115Z,1020.09
2018-12-18T00:10:34.104Z,1020.14
2018-12-18T00:11:34.112Z,1020.14
2018-12-18T00:12:34.088Z,1020.14
2018-12-18T00:13:34.082Z,1020.10
2018-12-18T00:14:34.064Z,1020.06
2018-12-18T00:15:34.052Z,1020.06
2018-12-18T00:16:34.091Z,1020.08
2018-12-18T00:17:34.028Z,1020.07
2018-12-18T00:18:34.020Z,1020.14
2018-12-18T00:19:34.015Z,1020.05
2018-12-18T00:20:33.995Z,1020.05
2018-12-18T00:21:33.978Z,1020.04
2018-12-18T00:22:33.988Z,1020.03
2018-12-18T00:23:33.963Z,1019.99
2018-12-18T00:24:33.965Z,1020.00
2018-12-18T00:25:34.029Z,1019.98
2018-12-18T00:26:33.941Z,1019.97
2018-12-18T00:27:33.945Z,1019.94
2018-12-18T00:28:33.963Z,1019.89
2018-12-18T00:29:33.931Z,1019.87
2018-12-18T00:30:33.931Z,1019.87
2018-12-18T00:31:33.871Z,1019.91
2018-12-18T00:32:33.874Z,1019.90
2018-12-18T00:33:33.880Z,1019.94
2018-12-18T00:34:33.846Z,1019.91
2018-12-18T00:35:33.852Z,1019.93
2018-12-18T00:36:33.833Z,1019.95
2018-12-18T00:37:33.813Z,1019.92
2018-12-18T00:38:34.722Z,1019.96
2018-12-18T00:39:33.813Z,1019.97
2018-12-18T00:40:34.002Z,1019.98
2018-12-18T00:41:34.217Z,1019.91
2018-12-18T00:42:34.673Z,1019.90
2018-12-18T00:43:34.666Z,1019.90
2018-12-18T00:44:33.811Z,1019.89
2018-12-18T00:45:33.718Z,1019.87
2018-12-18T00:46:33.711Z,1019.86
2018-12-18T00:47:34.786Z,1019.84
2018-12-18T00:48:33.690Z,1019.82
2018-12-18T00:49:33.683Z,1019.83
2018-12-18T00:50:33.676Z,1019.83
2018-12-18T00:51:33.666Z,1019.88
2018-12-18T00:52:33.665Z,1019.84
2018-12-18T00:53:33.663Z,1019.83
2018-12-18T00:54:33.623Z,1019.89
2018-12-18T00:55:33.627Z,1019.87
2018-12-18T00:56:33.611Z,1019.85
2018-12-18T00:57:33.626Z,1019.88
2018-12-18T00:58:33.583Z,1019.88
2018-12-18T00:59:33.568Z,1019.86
2018-12-18T01:00:33.558Z,1019.88
2018-12-18T01:01:33.557Z,1019.92
2018-12-18T01:02:33.546Z,1019.91
2018-12-18T01:03:33.546Z,1019.89
2018-12-18T01:04:33.524Z,1019.92
2018-12-18T01:05:33.517Z,1019.88
2018-12-18T01:06:33.526Z,1019.92
2018-12-18T01:07:33.488Z,1019.93
2018-12-18T01:08:33.507Z,1019.95
2018-12-18T01:09:33.465Z,1019.91
2018-12-18T01:10:33.458Z,1019.91
2018-12-18T01:11:33.445Z,1019.91
2018-12-18T01:12:33.430Z,1019.92
2018-12-18T01:13:33.429Z,1019.95
2018-12-18T01:14:33.422Z,1019.98
2018-12-18T01:15:33.396Z,1019.98
2018-12-18T01:16:33.425Z,1019.96
2018-12-18T01:17:33.380Z,1019.99
2018-12-18T01:18:33.377Z,1020.02
2018-12-18T01:19:33.391Z,1020.02
2018-12-18T01:20:33.343Z,1020.04
2018-12-18T01:21:33.331Z,1020.04
2018-12-18T01:22:33.338Z,1020.08
2018-12-18T01:23:33.310Z,1020.05
2018-12-18T01:24:33.305Z,1020.08
2018-12-18T01:25:33.307Z,1020.09
2018-12-18T01:26:33.278Z,1020.12
2018-12-18T01:27:33.268Z,1020.16
2018-12-18T01:28:33.254Z,1020.14
2018-12-18T01:29:34.173Z,1020.15
2018-12-18T01:30:33.297Z,1020.18
2018-12-18T01:31:33.259Z,1020.15
2018-12-18T01:32:33.212Z,1020.18
2018-12-18T01:33:33.203Z,1020.18
2018-12-18T01:34:33.200Z,1020.20
2018-12-18T01:35:33.206Z,1020.17
2018-12-18T01:36:33.169Z,1020.15
2018-12-18T01:37:33.169Z,1020.14
2018-12-18T01:38:33.166Z,1020.22
2018-12-18T01:39:33.150Z,1020.16
2018-12-18T01:40:33.127Z,1020.20
2018-12-18T01:41:33.172Z,1020.20
2018-12-18T01:42:33.109Z,1020.22
2018-12-18T01:43:33.111Z,1020.18
2018-12-18T01:44:33.094Z,1020.16
2018-12-18T01:45:33.077Z,1020.22
2018-12-18T01:46:33.077Z,1020.17
2018-12-18T01:47:33.075Z,1020.18
2018-12-18T01:48:33.059Z,1020.20
2018-12-18T01:49:33.055Z,1020.22
2018-12-18T01:50:33.027Z,1020.22
2018-12-18T01:51:33.007Z,1020.25
2018-12-18T01:52:33.000Z,1020.27
2018-12-18T01:53:32.992Z,1020.22
2018-12-18T01:54:33.018Z,1020.24
2018-12-18T01:55:32.966Z,1020.30
2018-12-18T01:56:32.961Z,1020.31
2018-12-18T01:57:32.949Z,1020.32
2018-12-18T01:58:32.932Z,1020.30
2018-12-18T01:59:32.931Z,1020.28
2018-12-18T02:00:32.934Z,1020.32
2018-12-18T02:01:32.911Z,1020.30
2018-12-18T02:02:32.894Z,1020.31
2018-12-18T02:03:32.890Z,1020.30
2018-12-18T02:04:32.883Z,1020.30
2018-12-18T02:05:32.876Z,1020.28
2018-12-18T02:06:32.853Z,1020.29
2018-12-18T02:07:32.849Z,1020.25
2018-12-18T02:08:32.838Z,1020.26
2018-12-18T02:09:32.816Z,1020.27
2018-12-18T02:10:32.832Z,1020.29
2018-12-18T02:11:32.809Z,1020.28
2018-12-18T02:12:32.796Z,1020.29
2018-12-18T02:13:32.781Z,1020.28
2018-12-18T02:14:32.782Z,1020.30
2018-12-18T02:15:32.770Z,1020.29
2018-12-18T02:16:32.751Z,1020.30
2018-12-18T02:17:32.801Z,1020.29
2018-12-18T02:18:33.763Z,1020.30
2018-12-18T02:19:32.715Z,1020.30
2018-12-18T02:20:32.702Z,1020.29
2018-12-18T02:21:32.689Z,1020.33
2018-12-18T02:22:32.812Z,1020.31
2018-12-18T02:23:32.666Z,1020.29
2018-12-18T02:24:32.661Z,1020.28
2018-12-18T02:25:32.647Z,1020.25
2018-12-18T02:26:32.647Z,1020.28
2018-12-18T02:27:32.643Z,1020.30
2018-12-18T02:28:32.627Z,1020.29
2018-12-18T02:29:32.600Z,1020.28
2018-12-18T02:30:32.602Z,1020.27
2018-12-18T02:31:32.591Z,1020.25
2018-12-18T02:32:32.579Z,1020.24
2018-12-18T02:33:32.569Z,1020.28
2018-12-18T02:34:32.561Z,1020.25
2018-12-18T02:35:32.537Z,1020.26
2018-12-18T02:36:32.542Z,1020.24
2018-12-18T02:37:32.511Z,1020.22
2018-12-18T02:38:32.515Z,1020.20
2018-12-18T02:39:32.512Z,1020.15
2018-12-18T02:40:32.501Z,1020.16
2018-12-18T02:41:32.483Z,1020.14
2018-12-18T02:42:32.459Z,1020.10
2018-12-18T02:43:32.452Z,1020.11
2018-12-18T02:44:32.436Z,1020.12
2018-12-18T02:45:32.449Z,1020.08
2018-12-18T02:46:32.464Z,1020.08
2018-12-18T02:47:32.414Z,1020.11
2018-12-18T02:48:32.413Z,1020.15
2018-12-18T02:49:32.395Z,1020.18
2018-12-18T02:50:32.386Z,1020.17
2018-12-18T02:51:32.369Z,1020.19
2018-12-18T02:52:32.377Z,1020.20
2018-12-18T02:53:32.360Z,1020.19
2018-12-18T02:54:32.326Z,1020.17
2018-12-18T02:55:32.342Z,1020.19
2018-12-18T02:56:32.322Z,1020.20
2018-12-18T02:57:32.296Z,1020.19
2018-12-18T02:58:32.342Z,1020.21
2018-12-18T02:59:32.273Z,1020.22
2018-12-18T03:00:32.277Z,1020.17
2018-12-18T03:01:32.279Z,1020.19
2018-12-18T03:02:32.245Z,1020.20
2018-12-18T03:03:32.232Z,1020.16
2018-12-18T03:04:32.241Z,1020.20
2018-12-18T03:05:32.259Z,1020.22
2018-12-18T03:06:32.242Z,1020.25
2018-12-18T03:07:33.233Z,1020.25
2018-12-18T03:08:32.224Z,1020.26
2018-12-18T03:09:32.180Z,1020.30
2018-12-18T03:10:32.157Z,1020.30
2018-12-18T03:11:32.144Z,1020.30
2018-12-18T03:12:32.149Z,1020.30
2018-12-18T03:13:32.131Z,1020.34
2018-12-18T03:14:32.142Z,1020.34
2018-12-18T03:15:32.105Z,1020.35
2018-12-18T03:16:32.113Z,1020.37
2018-12-18T03:17:32.097Z,1020.35
2018-12-18T03:18:32.070Z,1020.35
2018-12-18T03:19:32.076Z,1020.36
2018-12-18T03:20:32.052Z,1020.36
2018-12-18T03:21:32.047Z,1020.36
2018-12-18T03:22:32.039Z,1020.36
2018-12-18T03:23:32.029Z,1020.37
2018-12-18T03:24:32.115Z,1020.38
2018-12-18T03:25:32.047Z,1020.33
2018-12-18T03:26:31.991Z,1020.35
2018-12-18T03:27:31.980Z,1020.33
2018-12-18T03:28:31.978Z,1020.34
2018-12-18T03:29:31.959Z,1020.30
2018-12-18T03:30:31.969Z,1020.32
2018-12-18T03:31:31.958Z,1020.39
2018-12-18T03:32:31.932Z,1020.34
2018-12-18T03:33:31.921Z,1020.31
2018-12-18T03:34:31.946Z,1020.29
2018-12-18T03:35:31.886Z,1020.27
2018-12-18T03:36:31.908Z,1020.27
2018-12-18T03:37:31.873Z,1020.29
2018-12-18T03:38:31.862Z,1020.29
2018-12-18T03:39:31.855Z,1020.32
2018-12-18T03:40:31.855Z,1020.31
2018-12-18T03:41:31.848Z,1020.34
2018-12-18T03:42:31.820Z,1020.36
2018-12-18T03:43:31.810Z,1020.36
2018-12-18T03:44:31.802Z,1020.38
2018-12-18T03:45:31.777Z,1020.36
2018-12-18T03:46:31.809Z,1020.34
2018-12-18T03:47:31.770Z,1020.33
2018-12-18T03:48:31.748Z,1020.31
2018-12-18T03:49:31.740Z,1020.34
2018-12-18T03:50:31.734Z,1020.34
2018-12-18T03:51:31.718Z,1020.34
2018-12-18T03:52:31.719Z,1020.33
2018-12-18T03:53:31.692Z,1020.36
2018-12-18T03:54:31.693Z,1020.34
2018-12-18T03:55:31.679Z,1020.28
2018-12-18T03:56:32.194Z,1020.32
2018-12-18T03:57:31.668Z,1020.30
2018-12-18T03:58:31.649Z,1020.34
2018-12-18T03:59:31.631Z,1020.32
2018-12-18T04:00:31.626Z,1020.32
2018-12-18T04:01:31.623Z,1020.37
2018-12-18T04:02:31.625Z,1020.30
2018-12-18T04:03:31.592Z,1020.33
2018-12-18T04:04:35.482Z,1020.33
2018-12-18T04:05:31.575Z,1020.34
2018-12-18T04:06:31.563Z,1020.36
2018-12-18T04:07:31.542Z,1020.37
2018-12-18T04:08:31.543Z,1020.36
2018-12-18T04:09:31.529Z,1020.37
2018-12-18T04:10:32.019Z,1020.37
2018-12-18T04:11:31.511Z,1020.35
2018-12-18T04:12:31.493Z,1020.37
2018-12-18T04:13:31.497Z,1020.38
2018-12-18T04:14:31.509Z,1020.36
2018-12-18T04:15:31.451Z,1020.39
2018-12-18T04:16:31.446Z,1020.36
2018-12-18T04:17:31.430Z,1020.35
2018-12-18T04:18:31.424Z,1020.40
2018-12-18T04:19:31.415Z,1020.33
2018-12-18T04:20:31.730Z,1020.34
2018-12-18T04:21:31.395Z,1020.31
2018-12-18T04:22:31.391Z,1020.31
2018-12-18T04:23:31.374Z,1020.29
2018-12-18T04:24:31.358Z,1020.25
2018-12-18T04:25:31.347Z,1020.20
2018-12-18T04:26:31.358Z,1020.21
2018-12-18T04:27:31.334Z,1020.19
2018-12-18T04:28:31.329Z,1020.22
2018-12-18T04:29:31.319Z,1020.26
2018-12-18T04:30:31.335Z,1020.26
2018-12-18T04:31:31.288Z,1020.30
2018-12-18T04:32:31.275Z,1020.30
2018-12-18T04:33:31.272Z,1020.32
2018-12-18T04:34:31.261Z,1020.30
2018-12-18T04:35:31.242Z,1020.35
2018-12-18T04:36:31.254Z,1020.35
2018-12-18T04:37:31.247Z,1020.33
2018-12-18T04:38:31.211Z,1020.36
2018-12-18T04:39:31.200Z,1020.31
2018-12-18T04:40:31.200Z,1020.33
2018-12-18T04:41:31.191Z,1020.33
2018-12-18T04:42:31.198Z,1020.33
2018-12-18T04:43:31.161Z,1020.39
2018-12-18T04:44:31.713Z,1020.38
2018-12-18T04:45:31.213Z,1020.38
2018-12-18T04:46:31.123Z,1020.39
2018-12-18T04:47:31.120Z,1020.39
2018-12-18T04:48:31.127Z,1020.38
2018-12-18T04:49:31.099Z,1020.32
2018-12-18T04:50:31.077Z,1020.37
2018-12-18T04:51:31.068Z,1020.37
2018-12-18T04:52:31.057Z,1020.37
2018-12-18T04:53:31.064Z,1020.38
2018-12-18T04:54:31.053Z,1020.42
2018-12-18T04:55:31.037Z,1020.39
2018-12-18T04:56:31.014Z,1020.45
2018-12-18T04:57:31.036Z,1020.40
2018-12-18T04:58:30.995Z,1020.43
2018-12-18T04:59:30.984Z,1020.44
2018-12-18T05:00:30.968Z,1020.39
2018-12-18T05:01:30.958Z,1020.41
2018-12-18T05:02:30.952Z,1020.39
2018-12-18T05:03:30.984Z,1020.39
2018-12-18T05:04:30.930Z,1020.42
2018-12-18T05:05:30.971Z,1020.41
2018-12-18T05:06:30.909Z,1020.39
2018-12-18T05:07:30.903Z,1020.40
2018-12-18T05:08:30.889Z,1020.36
2018-12-18T05:09:30.895Z,1020.37
2018-12-18T05:10:30.869Z,1020.37
2018-12-18T05:11:30.861Z,1020.36
2018-12-18T05:12:30.892Z,1020.36
2018-12-18T05:13:30.856Z,1020.30
2018-12-18T05:14:30.833Z,1020.27
2018-12-18T05:15:30.817Z,1020.29
2018-12-18T05:16:30.814Z,1020.33
2018-12-18T05:17:30.800Z,1020.34
2018-12-18T05:18:30.815Z,1020.34
2018-12-18T05:19:30.779Z,1020.34
2018-12-18T05:20:30.767Z,1020.31
2018-12-18T05:21:30.751Z,1020.36
2018-12-18T05:22:30.746Z,1020.36
2018-12-18T05:23:30.745Z,1020.34
2018-12-18T05:24:30.723Z,1020.40
2018-12-18T05:25:30.712Z,1020.35
2018-12-18T05:26:30.691Z,1020.36
2018-12-18T05:27:30.678Z,1020.34
2018-12-18T05:28:30.681Z,1020.33
2018-12-18T05:29:30.686Z,1020.38
2018-12-18T05:30:30.673Z,1020.40
2018-12-18T05:31:30.639Z,1020.35
2018-12-18T05:32:31.213Z,1020.38
2018-12-18T05:33:30.671Z,1020.34
2018-12-18T05:34:30.623Z,1020.29
2018-12-18T05:35:30.677Z,1020.36
2018-12-18T05:36:30.587Z,1020.37
2018-12-18T05:37:30.576Z,1020.37
2018-12-18T05:38:30.574Z,1020.38
2018-12-18T05:39:30.574Z,1020.37
2018-12-18T05:40:30.566Z,1020.36
2018-12-18T05:41:30.526Z,1020.39
2018-12-18T05:42:30.521Z,1020.39
2018-12-18T05:43:30.521Z,1020.45
2018-12-18T05:44:30.521Z,1020.46
2018-12-18T05:45:30.502Z,1020.51
2018-12-18T05:46:30.484Z,1020.46
2018-12-18T05:47:30.462Z,1020.52
2018-12-18T05:48:30.465Z,1020.52
2018-12-18T05:49:30.878Z,1020.49
2018-12-18T05:50:30.445Z,1020.54
2018-12-18T05:51:30.468Z,1020.54
2018-12-18T05:52:30.409Z,1020.57
2018-12-18T05:53:30.408Z,1020.61
2018-12-18T05:54:30.394Z,1020.56
2018-12-18T05:55:30.391Z,1020.61
2018-12-18T05:56:30.371Z,1020.59
2018-12-18T05:57:30.371Z,1020.63
2018-12-18T05:58:30.346Z,1020.66
2018-12-18T05:59:30.342Z,1020.67
2018-12-18T06:00:30.331Z,1020.68
2018-12-18T06:01:30.319Z,1020.67
2018-12-18T06:02:30.312Z,1020.68
2018-12-18T06:03:30.319Z,1020.70
2018-12-18T06:04:30.285Z,1020.68
2018-12-18T06:05:30.268Z,1020.72
2018-12-18T06:06:30.276Z,1020.73
2018-12-18T06:07:30.266Z,1020.73
2018-12-18T06:08:30.249Z,1020.73
2018-12-18T06:09:30.260Z,1020.78
2018-12-18T06:10:30.228Z,1020.74
2018-12-18T06:11:30.211Z,1020.77
2018-12-18T06:12:30.229Z,1020.76
2018-12-18T06:13:30.195Z,1020.75
2018-12-18T06:14:30.189Z,1020.77
2018-12-18T06:15:30.171Z,1020.77
2018-12-18T06:16:30.159Z,1020.78
2018-12-18T06:17:30.148Z,1020.80
2018-12-18T06:18:30.200Z,1020.79
2018-12-18T06:19:30.117Z,1020.81
2018-12-18T06:20:30.710Z,1020.85
2018-12-18T06:21:30.111Z,1020.84
2018-12-18T06:22:30.095Z,1020.86
2018-12-18T06:23:30.079Z,1020.87
2018-12-18T06:24:30.161Z,1020.88
2018-12-18T06:25:30.058Z,1020.91
2018-12-18T06:26:30.056Z,1020.87
2018-12-18T06:27:30.030Z,1020.88
2018-12-18T06:28:30.032Z,1020.89
2018-12-18T06:29:30.015Z,1020.89
2018-12-18T06:30:30.016Z,1020.87
2018-12-18T06:31:29.996Z,1020.88
2018-12-18T06:32:29.986Z,1020.87
2018-12-18T06:33:29.972Z,1020.90
2018-12-18T06:34:29.991Z,1020.91
2018-12-18T06:35:29.948Z,1020.90
2018-12-18T06:36:29.953Z,1020.90
2018-12-18T06:37:29.944Z,1020.94
2018-12-18T06:38:29.920Z,1020.91
2018-12-18T06:39:29.925Z,1020.95
2018-12-18T06:40:29.926Z,1020.95
2018-12-18T06:41:29.879Z,1020.95
2018-12-18T06:42:29.871Z,1020.98
2018-12-18T06:43:29.868Z,1020.95
2018-12-18T06:44:29.850Z,1020.93
2018-12-18T06:45:29.843Z,1020.97
2018-12-18T06:46:29.874Z,1020.96
2018-12-18T06:47:29.886Z,1020.96
2018-12-18T06:48:29.824Z,1020.98
2018-12-18T06:49:29.790Z,1020.97
2018-12-18T06:50:29.783Z,1020.96
2018-12-18T06:51:29.787Z,1020.95
2018-12-18T06:52:29.770Z,1020.92
2018-12-18T06:53:29.750Z,1020.98
2018-12-18T06:54:29.758Z,1020.98
2018-12-18T06:55:29.740Z,1020.97
2018-12-18T06:56:29.719Z,1021.01
2018-12-18T06:57:29.814Z,1021.02
2018-12-18T06:58:29.701Z,1020.98
2018-12-18T06:59:29.681Z,1021.01
2018-12-18T07:00:29.671Z,1020.98
2018-12-18T07:01:29.662Z,1021.04
2018-12-18T07:02:29.673Z,1021.03
2018-12-18T07:03:29.655Z,1021.01
2018-12-18T07:04:29.639Z,1021.06
2018-12-18T07:05:29.648Z,1021.08
2018-12-18T07:06:29.619Z,1021.04
2018-12-18T07:07:29.776Z,1021.08
2018-12-18T07:08:29.617Z,1021.09
2018-12-18T07:09:29.628Z,1021.07
2018-12-18T07:10:29.577Z,1021.08
2018-12-18T07:11:29.556Z,1021.08
2018-12-18T07:12:29.560Z,1021.05
2018-12-18T07:13:29.545Z,1021.04
2018-12-18T07:14:29.537Z,1021.00
2018-12-18T07:15:29.508Z,1020.99
2018-12-18T07:16:29.529Z,1020.97
2018-12-18T07:17:29.501Z,1021.02
2018-12-18T07:18:29.495Z,1021.05
2018-12-18T07:19:29.495Z,1021.03
2018-12-18T07:20:29.455Z,1021.01
2018-12-18T07:21:29.459Z,1021.06
2018-12-18T07:22:29.445Z,1021.08
2018-12-18T07:23:29.452Z,1021.07
2018-12-18T07:24:29.426Z,1021.10
2018-12-18T07:25:29.494Z,1021.14
2018-12-18T07:26:29.391Z,1021.12
2018-12-18T07:27:29.394Z,1021.14
2018-12-18T07:28:29.478Z,1021.14
2018-12-18T07:29:29.808Z,1021.17
2018-12-18T07:30:29.351Z,1021.19
2018-12-18T07:31:29.335Z,1021.23
2018-12-18T07:32:29.327Z,1021.20
2018-12-18T07:33:29.329Z,1021.19
2018-12-18T07:34:33.353Z,1021.12
2018-12-18T07:35:29.316Z,1021.20
2018-12-18T07:36:29.285Z,1021.21
2018-12-18T07:37:29.289Z,1021.20
2018-12-18T07:38:29.274Z,1021.19
2018-12-18T07:39:29.269Z,1021.21
2018-12-18T07:40:29.468Z,1021.25
2018-12-18T07:41:29.233Z,1021.22
2018-12-18T07:42:29.226Z,1021.23
2018-12-18T07:43:29.216Z,1021.22
2018-12-18T07:44:29.205Z,1021.23
2018-12-18T07:45:29.215Z,1021.23
2018-12-18T07:46:29.186Z,1021.28
2018-12-18T07:47:29.186Z,1021.30
2018-12-18T07:48:29.156Z,1021.28
2018-12-18T07:49:29.155Z,1021.30
2018-12-18T07:50:29.138Z,1021.33
2018-12-18T07:51:29.145Z,1021.34
2018-12-18T07:52:29.157Z,1021.36
2018-12-18T07:53:29.145Z,1021.38
2018-12-18T07:54:29.103Z,1021.44
2018-12-18T07:55:29.080Z,1021.44
2018-12-18T07:56:29.066Z,1021.42
2018-12-18T07:57:29.722Z,1021.39
2018-12-18T07:58:29.731Z,1021.42
2018-12-18T07:59:29.044Z,1021.46
2018-12-18T08:00:29.021Z,1021.46
2018-12-18T08:01:29.026Z,1021.49
2018-12-18T08:02:29.010Z,1021.48
2018-12-18T08:03:28.995Z,1021.53
2018-12-18T08:04:28.988Z,1021.51
2018-12-18T08:05:30.050Z,1021.45
2018-12-18T08:06:28.985Z,1021.48
2018-12-18T08:07:28.954Z,1021.46
2018-12-18T08:08:28.934Z,1021.50
2018-12-18T08:09:28.973Z,1021.45
2018-12-18T08:10:28.926Z,1021.49
2018-12-18T08:11:28.921Z,1021.49
2018-12-18T08:12:28.914Z,1021.48
2018-12-18T08:13:28.884Z,1021.47
2018-12-18T08:14:28.883Z,1021.48
2018-12-18T08:15:28.914Z,1021.49
2018-12-18T08:16:28.866Z,1021.50
2018-12-18T08:17:28.834Z,1021.45
2018-12-18T08:18:28.829Z,1021.45
2018-12-18T08:19:28.830Z,1021.48
2018-12-18T08:20:28.819Z,1021.50
2018-12-18T08:21:28.852Z,1021.49
2018-12-18T08:22:28.789Z,1021.51
2018-12-18T08:23:28.775Z,1021.53
2018-12-18T08:24:28.774Z,1021.48
2018-12-18T08:25:28.759Z,1021.53
2018-12-18T08:26:28.748Z,1021.47
2018-12-18T08:27:28.743Z,1021.46
2018-12-18T08:28:28.722Z,1021.51
2018-12-18T08:29:28.707Z,1021.46
2018-12-18T08:30:28.696Z,1021.52
2018-12-18T08:31:28.712Z,1021.50
2018-12-18T08:32:28.701Z,1021.56
2018-12-18T08:33:28.675Z,1021.58
2018-12-18T08:34:28.663Z,1021.57
2018-12-18T08:35:28.654Z,1021.58
2018-12-18T08:36:28.640Z,1021.57
2018-12-18T08:37:28.621Z,1021.57
2018-12-18T08:38:28.664Z,1021.59
2018-12-18T08:39:28.610Z,1021.60
2018-12-18T08:40:28.594Z,1021.64
2018-12-18T08:41:28.573Z,1021.57
2018-12-18T08:42:28.581Z,1021.55
2018-12-18T08:43:28.557Z,1021.53
2018-12-18T08:44:28.569Z,1021.56
2018-12-18T08:45:29.231Z,1021.59
2018-12-18T08:46:28.521Z,1021.54
2018-12-18T08:47:28.517Z,1021.53
2018-12-18T08:48:28.506Z,1021.55
2018-12-18T08:49:28.494Z,1021.55
2018-12-18T08:50:28.498Z,1021.53
2018-12-18T08:51:28.510Z,1021.58
2018-12-18T08:52:28.466Z,1021.55
2018-12-18T08:53:28.459Z,1021.57
2018-12-18T08:54:28.434Z,1021.64
2018-12-18T08:55:28.437Z,1021.55
2018-12-18T08:56:28.417Z,1021.61
2018-12-18T08:57:28.420Z,1021.60
2018-12-18T08:58:28.397Z,1021.60
2018-12-18T08:59:28.383Z,1021.64
2018-12-18T09:00:28.400Z,1021.62
2018-12-18T09:01:28.367Z,1021.64
2018-12-18T09:02:28.339Z,1021.67
2018-12-18T09:03:28.334Z,1021.65
2018-12-18T09:04:28.356Z,1021.71
2018-12-18T09:05:28.319Z,1021.69
2018-12-18T09:06:28.315Z,1021.66
2018-12-18T09:07:28.284Z,1021.59
2018-12-18T09:08:37.761Z,1021.57
2018-12-18T09:09:28.266Z,1021.58
2018-12-18T09:10:28.265Z,1021.57
2018-12-18T09:11:28.277Z,1021.58
2018-12-18T09:12:28.241Z,1021.57
2018-12-18T09:13:28.223Z,1021.62
2018-12-18T09:14:28.212Z,1021.66
2018-12-18T09:15:28.219Z,1021.66
2018-12-18T09:16:28.223Z,1021.65
2018-12-18T09:17:28.195Z,1021.65
2018-12-18T09:18:28.170Z,1021.64
2018-12-18T09:19:28.157Z,1021.58
2018-12-18T09:20:28.141Z,1021.60
2018-12-18T09:21:28.155Z,1021.61
2018-12-18T09:22:28.150Z,1021.65
2018-12-18T09:23:28.107Z,1021.64
2018-12-18T09:24:28.096Z,1021.66
2018-12-18T09:25:28.096Z,1021.67
2018-12-18T09:26:28.073Z,1021.60
2018-12-18T09:27:28.080Z,1021.62
2018-12-18T09:28:28.062Z,1021.62
2018-12-18T09:29:28.065Z,1021.63
2018-12-18T09:30:28.041Z,1021.59
2018-12-18T09:31:28.025Z,1021.58
2018-12-18T09:32:28.106Z,1021.55
2018-12-18T09:33:28.049Z,1021.52
2018-12-18T09:34:27.993Z,1021.53
2018-12-18T09:35:27.989Z,1021.51
2018-12-18T09:36:27.971Z,1021.48
2018-12-18T09:37:27.973Z,1021.55
2018-12-18T09:38:27.971Z,1021.52
2018-12-18T09:39:27.950Z,1021.49
2018-12-18T09:40:27.934Z,1021.52
2018-12-18T09:41:27.924Z,1021.54
2018-12-18T09:42:27.919Z,1021.54
2018-12-18T09:43:28.024Z,1021.56
2018-12-18T09:44:27.879Z,1021.53
2018-12-18T09:45:27.879Z,1021.45
2018-12-18T09:46:27.867Z,1021.44
2018-12-18T09:47:27.876Z,1021.47
2018-12-18T09:48:27.843Z,1021.45
2018-12-18T09:49:27.879Z,1021.45
2018-12-18T09:50:27.821Z,1021.44
2018-12-18T09:51:27.800Z,1021.47
2018-12-18T09:52:27.802Z,1021.54
2018-12-18T09:53:27.785Z,1021.57
2018-12-18T09:54:27.780Z,1021.54
2018-12-18T09:55:27.786Z,1021.56
2018-12-18T09:56:27.752Z,1021.57
2018-12-18T09:57:27.771Z,1021.56
2018-12-18T09:58:27.729Z,1021.53
2018-12-18T09:59:27.738Z,1021.56
2018-12-18T10:00:27.746Z,1021.57
2018-12-18T10:01:27.719Z,1021.59
2018-12-18T10:02:27.691Z,1021.62
2018-12-18T10:03:33.355Z,1021.64
2018-12-18T10:04:28.682Z,1021.63
2018-12-18T10:05:27.695Z,1021.67
2018-12-18T10:06:27.655Z,1021.63
2018-12-18T10:07:27.642Z,1021.63
2018-12-18T10:08:27.634Z,1021.58
2018-12-18T10:09:27.621Z,1021.61
2018-12-18T10:10:27.612Z,1021.57
2018-12-18T10:11:27.609Z,1021.62
2018-12-18T10:12:27.585Z,1021.58
2018-12-18T10:13:27.571Z,1021.61
2018-12-18T10:14:27.562Z,1021.56
2018-12-18T10:15:27.548Z,1021.58
2018-12-18T10:16:27.557Z,1021.59
2018-12-18T10:17:27.521Z,1021.59
2018-12-18T10:18:27.508Z,1021.56
2018-12-18T10:19:27.550Z,1021.58
2018-12-18T10:20:27.487Z,1021.58
2018-12-18T10:21:27.526Z,1021.61
2018-12-18T10:22:27.479Z,1021.56
2018-12-18T10:23:27.460Z,1021.59
2018-12-18T10:24:27.446Z,1021.53
2018-12-18T10:25:27.446Z,1021.56
2018-12-18T10:26:27.425Z,1021.53
2018-12-18T10:27:27.448Z,1021.56
2018-12-18T10:28:27.413Z,1021.55
2018-12-18T10:29:27.404Z,1021.54
2018-12-18T10:30:27.389Z,1021.51
2018-12-18T10:31:27.365Z,1021.49
2018-12-18T10:32:27.359Z,1021.48
2018-12-18T10:33:27.360Z,1021.48
2018-12-18T10:34:27.358Z,1021.53
2018-12-18T10:35:27.322Z,1021.52
2018-12-18T10:36:27.310Z,1021.49
2018-12-18T10:37:27.313Z,1021.46
2018-12-18T10:38:27.321Z,1021.48
2018-12-18T10:39:27.295Z,1021.45
2018-12-18T10:40:27.267Z,1021.47
2018-12-18T10:41:27.268Z,1021.44
2018-12-18T10:42:27.244Z,1021.40
2018-12-18T10:43:27.263Z,1021.41
2018-12-18T10:44:27.237Z,1021.39
2018-12-18T10:45:27.217Z,1021.38
2018-12-18T10:46:27.216Z,1021.40
2018-12-18T10:47:27.210Z,1021.38
2018-12-18T10:48:27.218Z,1021.32
2018-12-18T10:49:27.198Z,1021.35
2018-12-18T10:50:27.162Z,1021.34
2018-12-18T10:51:27.162Z,1021.31
2018-12-18T10:52:27.156Z,1021.32
2018-12-18T10:53:27.139Z,1021.33
2018-12-18T10:54:27.151Z,1021.36
2018-12-18T10:55:27.118Z,1021.32
2018-12-18T10:56:27.107Z,1021.29
2018-12-18T10:57:27.106Z,1021.29
2018-12-18T10:58:27.074Z,1021.26
2018-12-18T10:59:27.093Z,1021.32
2018-12-18T11:00:27.289Z,1021.24
2018-12-18T11:01:27.053Z,1021.24
2018-12-18T11:02:27.024Z,1021.24
2018-12-18T11:03:27.037Z,1021.22
2018-12-18T11:04:27.004Z,1021.25
2018-12-18T11:05:27.016Z,1021.20
2018-12-18T11:06:26.991Z,1021.21
2018-12-18T11:07:26.986Z,1021.22
2018-12-18T11:08:26.959Z,1021.20
2018-12-18T11:09:26.961Z,1021.20
2018-12-18T11:10:26.953Z,1021.24
2018-12-18T11:11:26.930Z,1021.20
2018-12-18T11:12:26.947Z,1021.19
2018-12-18T11:13:26.910Z,1021.17
2018-12-18T11:14:26.910Z,1021.15
2018-12-18T11:15:26.890Z,1021.14
2018-12-18T11:16:26.876Z,1021.19
2018-12-18T11:17:26.877Z,1021.21
2018-12-18T11:18:26.876Z,1021.21
2018-12-18T11:19:26.861Z,1021.21
2018-12-18T11:20:26.872Z,1021.18
2018-12-18T11:21:26.822Z,1021.14
2018-12-18T11:22:26.814Z,1021.13
2018-12-18T11:23:26.803Z,1021.07
2018-12-18T11:24:26.809Z,1021.08
2018-12-18T11:25:26.794Z,1021.05
2018-12-18T11:26:26.805Z,1021.03
2018-12-18T11:27:26.752Z,1021.02
2018-12-18T11:28:26.739Z,1021.00
2018-12-18T11:29:26.742Z,1021.03
2018-12-18T11:30:26.729Z,1021.02
2018-12-18T11:31:26.755Z,1021.02
2018-12-18T11:32:32.986Z,1020.99
2018-12-18T11:33:27.687Z,1020.93
2018-12-18T11:34:26.676Z,1020.90
2018-12-18T11:35:26.681Z,1020.88
2018-12-18T11:36:26.670Z,1020.82
2018-12-18T11:37:26.674Z,1020.85
2018-12-18T11:38:26.643Z,1020.81
2018-12-18T11:39:26.628Z,1020.76
2018-12-18T11:40:26.623Z,1020.75
2018-12-18T11:41:26.663Z,1020.69
2018-12-18T11:42:26.593Z,1020.70
2018-12-18T11:43:26.600Z,1020.66
2018-12-18T11:44:26.577Z,1020.72
2018-12-18T11:45:26.560Z,1020.70
2018-12-18T11:46:26.546Z,1020.66
2018-12-18T11:47:26.556Z,1020.66
2018-12-18T11:48:26.575Z,1020.64
2018-12-18T11:49:26.512Z,1020.65
2018-12-18T11:50:26.521Z,1020.65
2018-12-18T11:51:26.495Z,1020.63
2018-12-18T11:52:26.480Z,1020.63
2018-12-18T11:53:26.469Z,1020.58
2018-12-18T11:54:26.501Z,1020.57
2018-12-18T11:55:26.452Z,1020.57
2018-12-18T11:56:26.446Z,1020.55
2018-12-18T11:57:26.430Z,1020.54
2018-12-18T11:58:26.425Z,1020.54
2018-12-18T11:59:26.466Z,1020.52
2018-12-18T12:00:26.407Z,1020.56
2018-12-18T12:01:26.392Z,1020.55
2018-12-18T12:02:26.370Z,1020.55
2018-12-18T12:03:26.378Z,1020.53
2018-12-18T12:04:26.357Z,1020.49
2018-12-18T12:05:26.356Z,1020.55